Time;durP1;ratioP1;P1;durP2;ratioP2;P2;SDS_P1;SDS_P2;PMS_P1;PMS_P2;Temp;Humidity;BMP_temperature;BMP_pressure;BME280_temperature;BME280_humidity;BME280_pressure;Samples;Min_cycle;Max_cycle;Signal;HPM_P1;HPM_P2
2023/09/05 00:00:10;;;;;;;8.63;7.35;;;;;;;17.64;100.00;102108.59;5069674;28;20035;-56
2023/09/05 00:02:43;;;;;;;8.60;6.78;;;;;;;17.55;100.00;102106.34;5068992;28;20025;-62
2023/09/05 00:05:09;;;;;;;7.85;6.57;;;;;;;17.53;100.00;102098.44;5068890;28;20425;-60
2023/09/05 00:07:35;;;;;;;6.90;6.30;;;;;;;17.45;100.00;102105.88;5068301;28;20146;-58
2023/09/05 00:10:03;;;;;;;8.65;6.68;;;;;;;17.41;100.00;102102.50;5071108;28;20032;-60
2023/09/05 00:12:29;;;;;;;8.25;7.18;;;;;;;17.40;100.00;102097.22;5069074;28;20047;-60
2023/09/05 00:14:55;;;;;;;8.18;6.80;;;;;;;17.41;100.00;102097.16;5068109;28;20532;-63
2023/09/05 00:17:20;;;;;;;8.32;7.32;;;;;;;17.41;100.00;102094.50;5068697;28;20020;-64
2023/09/05 00:19:45;;;;;;;7.47;6.70;;;;;;;17.52;100.00;102093.16;5068180;28;20052;-60
2023/09/05 00:22:11;;;;;;;8.23;6.50;;;;;;;17.48;100.00;102089.75;5067786;28;20107;-65
2023/09/05 00:24:38;;;;;;;8.00;6.43;;;;;;;17.52;100.00;102086.00;5069392;28;20103;-64
2023/09/05 00:27:09;;;;;;;9.13;6.63;;;;;;;17.51;100.00;102086.97;5089402;28;20036;-64
2023/09/05 00:29:35;;;;;;;8.77;5.97;;;;;;;17.54;100.00;102086.81;5087768;28;20048;-63
2023/09/05 00:32:01;;;;;;;6.50;5.90;;;;;;;17.60;100.00;102077.69;5087789;28;20067;-63
2023/09/05 00:34:28;;;;;;;8.00;6.10;;;;;;;17.54;100.00;102084.16;5088653;28;20024;-63
2023/09/05 00:36:53;;;;;;;8.57;6.53;;;;;;;17.55;100.00;102074.38;5080945;28;20371;-60
2023/09/05 00:39:19;;;;;;;7.13;6.40;;;;;;;17.30;100.00;102078.09;5069069;28;20017;-64
2023/09/05 00:41:45;;;;;;;13.60;6.78;;;;;;;17.33;100.00;102080.63;5067320;28;20658;-59
2023/09/05 00:44:13;;;;;;;7.00;6.28;;;;;;;17.39;100.00;102080.34;5068043;28;20090;-64
2023/09/05 00:46:42;;;;;;;8.30;6.47;;;;;;;17.44;100.00;102085.50;5067560;28;20115;-65
2023/09/05 00:49:10;;;;;;;6.78;6.13;;;;;;;17.46;100.00;102080.09;5067879;28;20486;-59
2023/09/05 00:51:36;;;;;;;7.82;6.07;;;;;;;17.48;100.00;102072.88;5068123;28;20497;-62
2023/09/05 00:54:03;;;;;;;8.27;6.05;;;;;;;17.50;100.00;102076.38;5050604;28;20380;-62
2023/09/05 00:56:29;;;;;;;7.63;6.07;;;;;;;17.47;100.00;102076.50;5067315;28;20378;-62
2023/09/05 00:58:55;;;;;;;8.00;6.05;;;;;;;17.38;100.00;102083.97;5049641;28;20020;-63
2023/09/05 01:01:20;;;;;;;7.40;6.28;;;;;;;17.35;100.00;102076.09;5050931;28;20025;-63
2023/09/05 01:03:46;;;;;;;9.35;6.38;;;;;;;17.35;100.00;102081.44;5068224;28;20021;-61
2023/09/05 01:06:22;;;;;;;10.63;6.70;;;;;;;17.34;100.00;102078.84;5104550;22;20456;-65
2023/09/05 01:08:54;;;;;;;13.25;6.75;;;;;;;17.26;100.00;102071.16;5006604;28;20112;-63
2023/09/05 01:11:21;;;;;;;8.10;6.88;;;;;;;17.22;100.00;102073.06;5006119;28;20627;-63
2023/09/05 01:13:46;;;;;;;8.45;6.65;;;;;;;17.25;100.00;102069.44;5007236;28;20495;-66
2023/09/05 01:16:11;;;;;;;10.82;7.30;;;;;;;17.20;100.00;102069.63;5007770;28;20060;-62
2023/09/05 01:18:40;;;;;;;9.25;6.72;;;;;;;17.01;100.00;102064.19;5008305;28;20590;-65
2023/09/05 01:21:21;;;;;;;7.30;6.60;;;;;;;17.08;100.00;102065.69;5008143;28;20022;-62
2023/09/05 01:23:58;;;;;;;10.57;7.10;;;;;;;17.19;100.00;102057.25;5020059;28;20080;-64
2023/09/05 01:26:24;;;;;;;7.70;6.70;;;;;;;17.22;100.00;102049.09;5007954;28;20406;-58
2023/09/05 01:28:52;;;;;;;7.20;6.50;;;;;;;17.24;100.00;102052.59;5008714;28;20026;-68
2023/09/05 01:31:17;;;;;;;7.97;6.50;;;;;;;17.14;100.00;102054.78;5006962;28;20057;-66
2023/09/05 01:33:43;;;;;;;7.28;6.43;;;;;;;17.22;100.00;102046.44;5021433;28;20406;-59
2023/09/05 01:36:08;;;;;;;9.00;6.60;;;;;;;17.22;100.00;102045.59;5027386;28;20048;-65
2023/09/05 01:38:34;;;;;;;6.45;5.85;;;;;;;17.17;100.00;102035.13;5013942;28;20678;-64
2023/09/05 01:40:59;;;;;;;7.40;6.53;;;;;;;17.22;100.00;102034.94;5007897;28;20030;-63
2023/09/05 01:43:24;;;;;;;7.65;6.15;;;;;;;17.21;100.00;102033.19;5005087;28;20068;-61
2023/09/05 01:45:50;;;;;;;7.20;6.30;;;;;;;17.19;100.00;102035.94;5007695;28;20030;-65
2023/09/05 01:48:15;;;;;;;10.77;6.63;;;;;;;17.14;100.00;102033.47;5007254;28;20404;-69
2023/09/05 01:50:41;;;;;;;9.45;6.35;;;;;;;17.12;100.00;102032.66;5006515;28;20487;-65
2023/09/05 01:53:06;;;;;;;6.65;6.00;;;;;;;17.11;100.00;102030.06;5007522;28;20049;-61
2023/09/05 01:55:32;;;;;;;8.60;6.70;;;;;;;17.16;100.00;102030.75;5007589;28;20076;-65
2023/09/05 01:57:57;;;;;;;7.90;6.45;;;;;;;17.10;100.00;102029.19;5008595;28;20632;-65
2023/09/05 02:00:23;;;;;;;6.60;6.00;;;;;;;17.12;100.00;102027.34;5007696;28;20076;-58
2023/09/05 02:02:48;;;;;;;8.27;6.50;;;;;;;17.14;100.00;102032.59;5007904;28;20120;-61
2023/09/05 02:05:14;;;;;;;7.22;5.93;;;;;;;17.10;100.00;102029.19;5008796;28;20031;-65
2023/09/05 02:07:39;;;;;;;9.20;6.28;;;;;;;17.09;100.00;102030.13;5006499;28;20029;-62
2023/09/05 02:10:06;;;;;;;7.50;6.13;;;;;;;17.08;100.00;102028.41;5008375;28;20480;-63
2023/09/05 02:12:32;;;;;;;6.35;5.70;;;;;;;17.03;100.00;102025.03;5007657;28;20579;-55
2023/09/05 02:14:58;;;;;;;6.07;5.45;;;;;;;17.00;100.00;102026.03;5007937;28;20068;-64
2023/09/05 02:17:24;;;;;;;7.18;5.97;;;;;;;16.96;100.00;102023.56;5008366;28;20034;-65
2023/09/05 02:19:49;;;;;;;8.32;5.32;;;;;;;16.91;100.00;102018.44;5008563;28;20025;-62
2023/09/05 02:22:14;;;;;;;9.52;6.38;;;;;;;16.87;100.00;102012.38;5006197;28;20524;-62
2023/09/05 02:24:41;;;;;;;8.30;6.20;;;;;;;16.82;100.00;102014.34;5007532;28;20515;-62
2023/09/05 02:27:06;;;;;;;7.30;5.55;;;;;;;16.79;100.00;102004.72;5007531;28;20550;-61
2023/09/05 02:29:32;;;;;;;7.90;6.07;;;;;;;16.83;100.00;102013.44;5007598;28;20026;-64
2023/09/05 02:31:57;;;;;;;6.78;5.72;;;;;;;16.77;100.00;102006.56;5008275;28;20037;-64
2023/09/05 02:34:23;;;;;;;7.13;6.05;;;;;;;16.83;100.00;102004.59;5009488;28;20030;-54
2023/09/05 02:36:48;;;;;;;7.60;6.07;;;;;;;16.81;100.00;101996.66;5011749;28;20073;-63
2023/09/05 02:39:13;;;;;;;8.88;6.15;;;;;;;16.81;100.00;101999.34;5012465;28;20018;-61
2023/09/05 02:41:39;;;;;;;9.98;6.28;;;;;;;16.82;100.00;102006.38;5011708;28;20506;-61
2023/09/05 02:44:04;;;;;;;6.95;6.05;;;;;;;16.84;100.00;101996.53;5012329;28;20108;-65
2023/09/05 02:46:30;;;;;;;8.05;6.25;;;;;;;16.79;100.00;102006.50;5011341;28;20030;-54
2023/09/05 02:48:55;;;;;;;7.50;5.80;;;;;;;16.78;100.00;102010.09;5012237;28;20128;-64
2023/09/05 02:51:20;;;;;;;12.80;6.13;;;;;;;16.78;100.00;102010.97;5011923;28;20033;-62
2023/09/05 02:53:47;;;;;;;8.10;6.05;;;;;;;16.78;100.00;102004.78;5010741;28;20156;-65
2023/09/05 02:56:12;;;;;;;9.77;5.80;;;;;;;16.75;100.00;102008.44;5011634;28;20025;-65
2023/09/05 02:58:38;;;;;;;7.30;5.90;;;;;;;16.72;100.00;102003.25;5010085;28;20662;-63
2023/09/05 03:01:05;;;;;;;8.82;6.18;;;;;;;16.71;100.00;102005.97;5011603;28;20085;-66
2023/09/05 03:03:30;;;;;;;7.93;5.88;;;;;;;16.67;100.00;102007.88;5011969;28;20460;-60
2023/09/05 03:05:56;;;;;;;7.32;6.45;;;;;;;16.68;100.00;101998.97;5010732;28;20049;-57
2023/09/05 03:08:22;;;;;;;10.07;6.25;;;;;;;16.62;100.00;102002.75;5010668;28;20089;-64
2023/09/05 03:10:51;;;;;;;7.18;6.47;;;;;;;16.62;100.00;102002.75;5010549;28;20029;-65
2023/09/05 03:13:17;;;;;;;13.45;6.75;;;;;;;16.55;100.00;102006.59;5010488;28;20026;-63
2023/09/05 03:15:42;;;;;;;8.13;6.25;;;;;;;16.57;100.00;102004.75;5010873;28;20030;-57
2023/09/05 03:18:08;;;;;;;8.10;6.20;;;;;;;16.56;100.00;101995.03;5009868;28;20022;-58
2023/09/05 03:20:33;;;;;;;7.03;6.10;;;;;;;16.51;100.00;101994.34;5009224;28;20456;-60
2023/09/05 03:22:58;;;;;;;9.48;6.63;;;;;;;16.51;100.00;101986.38;5011083;28;20097;-64
2023/09/05 03:25:24;;;;;;;8.88;6.88;;;;;;;16.44;100.00;101998.19;5008359;28;20029;-61
2023/09/05 03:27:50;;;;;;;8.02;6.28;;;;;;;16.40;100.00;101992.09;5009747;28;20113;-64
2023/09/05 03:30:15;;;;;;;7.53;6.32;;;;;;;16.35;100.00;101989.66;5010436;28;20109;-66
2023/09/05 03:32:40;;;;;;;10.40;6.78;;;;;;;16.33;100.00;101985.31;5009997;28;20582;-66
2023/09/05 03:35:06;;;;;;;8.73;6.32;;;;;;;16.31;100.00;101990.69;5010411;28;20025;-61
2023/09/05 03:37:31;;;;;;;8.52;6.82;;;;;;;16.29;100.00;101984.59;5010004;28;20029;-64
2023/09/05 03:39:57;;;;;;;8.13;6.63;;;;;;;16.26;100.00;101977.56;5009824;28;20037;-64
2023/09/05 03:42:22;;;;;;;8.15;7.35;;;;;;;16.25;100.00;101969.66;5009557;28;20034;-55
2023/09/05 03:44:48;;;;;;;10.82;7.03;;;;;;;16.24;100.00;101966.16;5011386;28;20496;-60
2023/09/05 03:47:13;;;;;;;9.73;6.97;;;;;;;16.23;100.00;101966.19;5009820;28;20080;-64
2023/09/05 03:49:38;;;;;;;8.40;7.03;;;;;;;16.20;100.00;101967.19;5009979;28;20247;-66
2023/09/05 03:52:04;;;;;;;8.85;6.82;;;;;;;16.21;100.00;101960.06;5009783;28;20034;-62
2023/09/05 03:54:30;;;;;;;7.63;6.88;;;;;;;16.18;100.00;101969.03;5009323;28;20034;-63
2023/09/05 03:56:55;;;;;;;9.15;7.60;;;;;;;16.15;100.00;101970.03;5009918;28;20105;-64
2023/09/05 03:59:20;;;;;;;10.63;7.65;;;;;;;16.16;100.00;101968.22;5008863;28;20040;-67
2023/09/05 04:01:49;;;;;;;8.98;6.88;;;;;;;16.20;100.00;101979.63;5009088;28;20029;-56
2023/09/05 04:04:15;;;;;;;9.27;7.60;;;;;;;16.22;100.00;101978.63;5010250;28;20033;-63
2023/09/05 04:06:40;;;;;;;7.80;7.07;;;;;;;16.15;100.00;101972.69;5009139;28;20044;-62
2023/09/05 04:09:05;;;;;;;9.40;7.45;;;;;;;16.17;100.00;101973.47;5009367;28;20039;-60
2023/09/05 04:11:31;;;;;;;9.43;7.57;;;;;;;16.15;100.00;101970.03;5009897;28;20026;-63
2023/09/05 04:13:56;;;;;;;9.40;7.40;;;;;;;16.14;100.00;101970.94;5008390;28;20037;-61
2023/09/05 04:16:22;;;;;;;11.63;7.35;;;;;;;16.10;100.00;101976.47;5010212;28;20026;-63
2023/09/05 04:18:47;;;;;;;9.57;7.05;;;;;;;16.03;100.00;101970.50;5010077;28;20022;-62
2023/09/05 04:21:12;;;;;;;9.15;7.07;;;;;;;15.98;100.00;101969.84;5008692;28;20484;-64
2023/09/05 04:23:38;;;;;;;10.10;7.68;;;;;;;15.92;100.00;101969.09;5009745;28;20029;-63
2023/09/05 04:26:03;;;;;;;12.40;7.72;;;;;;;15.89;100.00;101966.56;5008420;28;20121;-63
2023/09/05 04:28:30;;;;;;;7.50;6.70;;;;;;;15.88;100.00;101967.50;5008282;28;20022;-60
2023/09/05 04:30:56;;;;;;;10.65;8.05;;;;;;;15.85;100.00;101964.97;5009245;28;20010;-65
2023/09/05 04:33:46;;;;;;;8.77;7.82;;;;;;;15.83;100.00;101971.25;5008965;28;20046;-63
2023/09/05 04:36:11;;;;;;;7.82;6.50;;;;;;;15.82;100.00;101967.72;5006895;28;20034;-65
2023/09/05 04:38:37;;;;;;;9.05;8.15;;;;;;;15.83;100.00;101972.09;5008653;28;20048;-62
2023/09/05 04:41:03;;;;;;;10.13;8.40;;;;;;;15.83;100.00;101968.59;5008060;28;20499;-63
2023/09/05 04:43:29;;;;;;;10.02;7.65;;;;;;;15.82;100.00;101973.03;5007909;28;20484;-62
2023/09/05 04:45:56;;;;;;;8.85;7.82;;;;;;;15.82;100.00;101967.72;5007929;28;20108;-61
2023/09/05 04:48:21;;;;;;;11.35;8.25;;;;;;;15.84;100.00;101967.66;5007769;28;20041;-56
2023/09/05 04:50:47;;;;;;;9.80;7.70;;;;;;;15.81;100.00;101965.13;5007791;28;20022;-64
2023/09/05 04:53:12;;;;;;;10.85;8.13;;;;;;;15.80;100.00;101969.56;5006784;28;20120;-64
2023/09/05 04:55:40;;;;;;;11.88;8.00;;;;;;;15.77;100.00;101965.25;5006161;28;20026;-61
2023/09/05 04:58:06;;;;;;;11.07;8.27;;;;;;;15.75;100.00;101967.06;5007188;28;20095;-60
2023/09/05 05:00:31;;;;;;;9.45;7.88;;;;;;;15.75;100.00;101976.84;5007122;28;20029;-67
2023/09/05 05:02:57;;;;;;;9.93;8.35;;;;;;;15.72;100.00;101971.66;5008308;28;20040;-66
2023/09/05 05:05:23;;;;;;;10.98;8.27;;;;;;;15.72;100.00;101974.31;5006857;28;20046;-59
2023/09/05 05:07:48;;;;;;;12.15;8.13;;;;;;;15.74;100.00;101964.50;5008243;28;20022;-62
2023/09/05 05:10:13;;;;;;;12.23;8.25;;;;;;;15.75;100.00;101963.56;5008638;28;20030;-64
2023/09/05 05:12:39;;;;;;;9.88;7.93;;;;;;;15.77;100.00;101967.91;5007304;28;20050;-64
2023/09/05 05:15:05;;;;;;;9.68;8.60;;;;;;;15.84;100.00;101971.19;5008012;28;20057;-71
2023/09/05 05:17:30;;;;;;;13.88;8.35;;;;;;;15.87;100.00;101965.75;5008335;28;20026;-60
2023/09/05 05:19:56;;;;;;;11.32;8.70;;;;;;;15.94;100.00;101965.50;5007997;28;20030;-62
2023/09/05 05:22:21;;;;;;;10.20;8.45;;;;;;;15.90;100.00;101959.47;5009889;28;20116;-64
2023/09/05 05:24:48;;;;;;;12.13;8.40;;;;;;;15.91;100.00;101959.41;5009267;28;20101;-62
2023/09/05 05:27:13;;;;;;;10.73;8.65;;;;;;;15.97;100.00;101962.78;5008866;28;20522;-61
2023/09/05 05:29:38;;;;;;;13.50;8.30;;;;;;;16.05;100.00;101968.66;5009747;28;20017;-62
2023/09/05 05:32:04;;;;;;;8.82;7.93;;;;;;;16.09;100.00;101972.06;5008902;28;20052;-69
2023/09/05 05:34:31;;;;;;;9.85;7.65;;;;;;;16.17;100.00;101978.81;5009673;28;20034;-65
2023/09/05 05:36:56;;;;;;;10.55;7.70;;;;;;;16.17;100.00;101978.81;5007947;28;20105;-62
2023/09/05 05:39:24;;;;;;;10.23;8.20;;;;;;;16.20;100.00;101975.19;5008798;28;20117;-62
2023/09/05 05:41:49;;;;;;;9.93;8.23;;;;;;;16.22;100.00;101972.47;5009733;28;20149;-65
2023/09/05 05:44:15;;;;;;;10.75;7.40;;;;;;;16.26;100.00;101971.41;5007729;28;20065;-61
2023/09/05 05:46:41;;;;;;;8.75;7.50;;;;;;;16.35;100.00;101975.47;5006784;28;20022;-63
2023/09/05 05:49:07;;;;;;;8.07;6.43;;;;;;;16.41;100.00;101973.44;5008222;28;20065;-60
2023/09/05 05:51:33;;;;;;;9.70;7.38;;;;;;;16.57;100.00;101972.81;5006802;28;20052;-63
2023/09/05 05:53:58;;;;;;;11.93;7.63;;;;;;;16.68;100.00;101977.69;5009281;28;20121;-62
2023/09/05 05:56:24;;;;;;;13.88;6.97;;;;;;;16.79;100.00;101972.78;5007821;28;20037;-62
2023/09/05 05:58:49;;;;;;;8.63;6.43;;;;;;;16.89;100.00;101978.56;5008941;28;20073;-57
2023/09/05 06:01:17;;;;;;;8.98;6.90;;;;;;;17.03;100.00;101975.31;5009202;28;20025;-62
2023/09/05 06:03:43;;;;;;;7.47;6.40;;;;;;;17.12;100.00;101966.09;5007748;28;20022;-64
2023/09/05 06:06:09;;;;;;;10.20;6.90;;;;;;;17.16;100.00;101969.50;5007741;28;20088;-64
2023/09/05 06:08:34;;;;;;;7.45;6.38;;;;;;;17.22;100.00;101965.69;5007838;28;20022;-63
2023/09/05 06:10:59;;;;;;;10.25;6.30;;;;;;;17.29;100.00;101967.16;5010151;28;20101;-62
2023/09/05 06:13:25;;;;;;;12.02;6.95;;;;;;;17.33;100.00;101962.56;5010788;28;20083;-66
2023/09/05 06:15:50;;;;;;;7.97;5.78;;;;;;;17.48;100.00;101967.19;5009663;28;20506;-65
2023/09/05 06:18:15;;;;;;;10.13;6.07;;;;;;;17.56;100.00;101977.50;5008474;28;20558;-64
2023/09/05 06:20:41;;;;;;;8.75;5.97;;;;;;;17.72;100.00;101975.00;5007078;28;20026;-63
2023/09/05 06:23:06;;;;;;;7.53;5.40;;;;;;;17.84;100.00;101972.69;5007701;28;20030;-69
2023/09/05 06:25:32;;;;;;;8.02;5.30;;;;;;;17.91;100.00;101972.31;5007540;28;20392;-65
2023/09/05 06:27:58;;;;;;;8.57;5.45;;;;;;;18.02;100.00;101970.94;5006761;28;20030;-66
2023/09/05 06:30:23;;;;;;;5.72;5.10;;;;;;;18.12;100.00;101985.59;5006994;28;20026;-67
2023/09/05 06:32:49;;;;;;;8.30;5.10;;;;;;;18.24;100.00;101972.63;5007778;28;20079;-66
2023/09/05 06:35:15;;;;;;;13.07;5.40;;;;;;;18.30;100.00;101974.97;5005590;28;20083;-62
2023/09/05 06:37:40;;;;;;;7.63;4.80;;;;;;;18.43;100.00;101976.09;5004522;28;20357;-67
2023/09/05 06:40:09;;;;;;;9.00;5.07;;;;;;;18.55;100.00;101979.13;5001205;28;20052;-67
2023/09/05 06:42:37;;;;;;;6.65;5.25;;;;;;;18.56;100.00;101980.84;5005135;28;20388;-62
2023/09/05 06:45:06;;;;;;;5.57;4.38;;;;;;;18.64;100.00;101978.69;5004161;28;20468;-66
2023/09/05 06:47:32;;;;;;;13.68;5.35;;;;;;;18.69;100.00;101975.75;5007155;28;20113;-63
2023/09/05 06:49:58;;;;;;;6.75;4.53;;;;;;;18.72;100.00;101969.41;5005267;28;20025;-64
2023/09/05 06:52:23;;;;;;;9.50;5.10;;;;;;;18.82;100.00;101968.00;5006671;28;20476;-66
2023/09/05 06:54:50;;;;;;;10.13;5.05;;;;;;;18.91;100.00;101964.84;5005750;28;20037;-63
2023/09/05 06:57:16;;;;;;;7.55;4.25;;;;;;;19.04;100.00;101969.56;5006343;28;20404;-61
2023/09/05 06:59:42;;;;;;;5.78;4.65;;;;;;;19.16;100.00;101970.75;5005431;28;20028;-60
2023/09/05 07:02:07;;;;;;;6.90;4.10;;;;;;;19.19;100.00;101975.94;5006000;28;20105;-64
2023/09/05 07:04:36;;;;;;;8.25;4.53;;;;;;;19.29;100.00;101973.63;5006639;28;20109;-63
2023/09/05 07:07:03;;;;;;;;;;;;;;;19.29;100.00;101977.19;5003416;28;20136;-66
2023/09/05 07:09:29;;;;;;;6.10;4.40;;;;;;;19.37;100.00;101984.78;5005146;28;19921;-64
2023/09/05 07:11:54;;;;;;;9.88;4.70;;;;;;;19.41;100.00;101983.69;5006874;28;20026;-65
2023/09/05 07:14:19;;;;;;;8.85;5.10;;;;;;;19.45;100.00;101985.22;5006712;28;20040;-67
2023/09/05 07:16:45;;;;;;;6.88;5.38;;;;;;;19.54;100.00;101985.69;5004941;28;20033;-64
2023/09/05 07:19:10;;;;;;;7.47;4.15;;;;;;;19.66;100.00;101981.50;5006210;28;20034;-62
2023/09/05 07:21:40;;;;;;;5.30;4.30;;;;;;;19.74;100.00;101978.41;5007856;28;20033;-64
2023/09/05 07:24:09;;;;;;;8.05;4.38;;;;;;;19.80;100.00;101980.72;5010001;28;20036;-64
2023/09/05 07:26:35;;;;;;;6.35;4.25;;;;;;;19.83;100.00;101977.88;5009552;28;20764;-62
2023/09/05 07:29:01;;;;;;;10.57;5.18;;;;;;;19.93;100.00;101975.56;5008945;28;20053;-65
2023/09/05 07:31:31;;;;;;;5.88;4.60;;;;;;;20.06;100.00;101979.31;5010355;28;20622;-63
2023/09/05 07:33:56;;;;;;;12.07;4.60;;;;;;;20.11;100.00;101979.06;5008873;28;20029;-62
2023/09/05 07:36:21;;;;;;;5.38;4.57;;;;;;;20.25;100.00;101985.41;5009222;28;20033;-64
2023/09/05 07:38:47;;;;;;;7.78;4.40;;;;;;;20.24;100.00;101981.91;5010179;28;20101;-64
2023/09/05 07:41:12;;;;;;;9.60;4.30;;;;;;;20.32;100.00;101986.81;5009248;28;20514;-66
2023/09/05 07:43:37;;;;;;;5.53;4.28;;;;;;;20.40;100.00;101986.34;5009743;28;20459;-61
2023/09/05 07:46:03;;;;;;;7.82;4.50;;;;;;;20.42;100.00;101979.97;5008272;28;20401;-66
2023/09/05 07:48:28;;;;;;;9.10;4.70;;;;;;;20.48;100.00;101983.25;5009058;28;20029;-62
2023/09/05 07:51:04;;;;;;;6.55;4.07;;;;;;;20.55;100.00;101976.56;5009475;28;20014;-64
2023/09/05 07:53:31;;;;;;;7.57;4.20;;;;;;;20.51;100.00;101972.34;5010060;28;20032;-65
2023/09/05 07:55:56;;;;;;;8.35;4.25;;;;;;;20.64;100.00;101977.84;5008546;28;20018;-62
2023/09/05 07:58:22;;;;;;;6.88;4.93;;;;;;;20.78;100.00;101966.31;5010124;28;20508;-63
2023/09/05 08:00:48;;;;;;;6.68;4.40;;;;;;;20.88;100.00;101970.19;5008354;28;20489;-66
2023/09/05 08:03:13;;;;;;;5.82;4.55;;;;;;;20.91;100.00;101969.16;5009455;28;20041;-63
2023/09/05 08:05:39;;;;;;;5.65;3.90;;;;;;;20.98;100.00;101967.81;5007759;28;20744;-63
2023/09/05 08:08:04;;;;;;;4.88;3.83;;;;;;;21.06;100.00;101970.03;4991363;28;20026;-64
2023/09/05 08:10:30;;;;;;;6.53;4.05;;;;;;;21.10;100.00;101968.91;5008779;28;20065;-62
2023/09/05 08:12:55;;;;;;;6.30;4.20;;;;;;;21.21;100.00;101968.25;5009559;28;20030;-62
2023/09/05 08:15:20;;;;;;;6.32;3.60;;;;;;;21.26;100.00;101970.66;5008758;28;20034;-63
2023/09/05 08:17:46;;;;;;;8.07;4.35;;;;;;;21.33;100.00;101955.91;5008130;28;20018;-64
2023/09/05 08:20:12;;;;;;;13.00;4.13;;;;;;;21.34;100.00;101968.34;5007580;28;20502;-63
2023/09/05 08:22:38;;;;;;;6.88;3.97;;;;;;;21.46;100.00;101969.38;5008581;28;20030;-65
2023/09/05 08:25:04;;;;;;;5.25;4.05;;;;;;;21.53;100.00;101967.19;5009536;28;20067;-64
2023/09/05 08:27:30;;;;;;;6.88;3.70;;;;;;;21.65;100.00;101969.13;5007498;28;20088;-62
2023/09/05 08:29:56;;;;;;;11.38;4.20;;;;;;;21.75;100.00;101968.50;5009541;28;20018;-59
2023/09/05 08:32:22;;;;;;;6.07;3.92;;;;;;;21.81;100.00;101968.16;5009254;28;20030;-64
2023/09/05 08:34:47;;;;;;;6.03;4.00;;;;;;;21.91;100.00;101968.44;5008089;28;20030;-63
2023/09/05 08:37:13;;;;;;;5.47;4.03;;;;;;;21.92;100.00;101967.47;5009428;28;20033;-63
2023/09/05 08:39:38;;;;;;;6.05;3.85;;;;;;;22.01;100.00;101964.19;5007592;28;20037;-56
2023/09/05 08:42:07;;;;;;;4.93;3.92;;;;;;;22.09;100.00;101966.34;5008292;28;20062;-64
2023/09/05 08:44:39;;;;;;;5.10;4.00;;;;;;;22.07;98.61;101969.13;5008376;28;20524;-62
2023/09/05 08:47:05;;;;;;;5.35;3.70;;;;;;;22.14;98.14;101977.66;5008250;28;20026;-63
2023/09/05 08:49:30;;;;;;;5.55;3.90;;;;;;;22.20;97.55;101979.97;5008904;28;20596;-64
2023/09/05 08:51:59;;;;;;;11.63;4.28;;;;;;;22.32;98.01;101972.03;5009213;28;20029;-63
2023/09/05 08:54:25;;;;;;;5.43;3.85;;;;;;;22.41;97.85;101976.81;5007515;28;20033;-67
2023/09/05 08:56:50;;;;;;;5.70;3.35;;;;;;;22.49;97.61;101976.31;5008664;28;20167;-61
2023/09/05 08:59:16;;;;;;;6.07;3.67;;;;;;;22.42;95.97;101978.53;5007299;28;20689;-63
2023/09/05 09:01:44;;;;;;;6.63;4.28;;;;;;;22.58;96.57;101977.53;5008554;28;20041;-65
2023/09/05 09:04:09;;;;;;;8.05;3.45;;;;;;;22.65;95.63;101977.97;5008978;28;20026;-64
2023/09/05 09:06:34;;;;;;;5.47;4.22;;;;;;;22.67;95.61;101984.13;5007819;28;20048;-63
2023/09/05 09:09:00;;;;;;;8.45;3.92;;;;;;;22.84;94.50;101986.50;5007903;28;20034;-60
2023/09/05 09:11:25;;;;;;;5.13;3.60;;;;;;;22.88;95.50;101988.97;5007508;28;20457;-65
2023/09/05 09:13:58;;;;;;;4.20;3.10;;;;;;;22.99;95.15;101999.00;5008741;28;20061;-62
2023/09/05 09:16:24;;;;;;;7.50;4.18;;;;;;;22.89;94.88;101999.63;5007642;28;20104;-64
2023/09/05 09:18:50;;;;;;;6.00;4.10;;;;;;;22.97;93.98;102002.63;5007582;28;20073;-62
2023/09/05 09:21:18;;;;;;;8.68;4.05;;;;;;;23.02;93.57;101999.63;5006813;28;20523;-65
2023/09/05 09:23:44;;;;;;;4.97;3.53;;;;;;;23.03;93.84;101997.81;5007305;28;20029;-64
2023/09/05 09:26:10;;;;;;;6.72;3.90;;;;;;;23.18;93.47;101996.72;5008201;28;20022;-64
2023/09/05 09:28:37;;;;;;;9.60;4.65;;;;;;;23.23;92.12;101997.28;5007759;28;20032;-61
2023/09/05 09:31:05;;;;;;;8.45;3.80;;;;;;;23.29;93.69;101995.13;5007965;28;20160;-66
2023/09/05 09:33:31;;;;;;;6.55;3.80;;;;;;;23.40;93.70;101989.91;5008511;28;20384;-64
2023/09/05 09:36:00;;;;;;;6.30;4.15;;;;;;;23.48;93.42;101986.66;5007012;28;20030;-63
2023/09/05 09:38:26;;;;;;;6.38;3.30;;;;;;;23.53;92.51;101987.19;5008099;28;20030;-64
2023/09/05 09:40:51;;;;;;;16.98;3.97;;;;;;;23.57;93.35;101982.47;5007561;28;20499;-63
2023/09/05 09:43:17;;;;;;;6.38;3.78;;;;;;;23.64;92.45;101980.19;5007906;28;20025;-61
2023/09/05 09:45:42;;;;;;;7.50;4.13;;;;;;;23.68;93.46;101979.84;5007809;28;20109;-66
2023/09/05 09:48:09;;;;;;;7.75;4.03;;;;;;;23.78;92.54;101981.88;5007163;28;20026;-64
2023/09/05 09:50:36;;;;;;;6.28;3.47;;;;;;;23.91;92.42;101980.00;5007117;28;20055;-65
2023/09/05 09:53:04;;;;;;;6.78;3.42;;;;;;;24.00;93.17;101962.31;5007280;28;20048;-62
2023/09/05 09:55:31;;;;;;;4.65;3.38;;;;;;;24.16;92.09;101964.75;5007674;28;20384;-65
2023/09/05 09:58:01;;;;;;;6.70;3.90;;;;;;;24.30;91.10;101961.06;5010535;28;20030;-62
2023/09/05 10:00:28;;;;;;;7.63;3.83;;;;;;;24.30;91.26;101962.88;5006800;28;20025;-63
2023/09/05 10:02:54;;;;;;;7.70;4.35;;;;;;;24.36;90.20;101963.25;5007153;28;20032;-60
2023/09/05 10:05:23;;;;;;;7.18;3.92;;;;;;;24.45;89.15;101958.16;5008715;28;20022;-61
2023/09/05 10:07:49;;;;;;;5.72;3.90;;;;;;;24.57;89.54;101965.31;5008866;28;20030;-63
2023/09/05 10:10:15;;;;;;;10.55;3.83;;;;;;;24.79;89.60;101966.34;5006178;28;20037;-66
2023/09/05 10:12:47;;;;;;;11.02;3.83;;;;;;;24.82;87.96;101966.13;5005875;28;20058;-65
2023/09/05 10:15:15;;;;;;;26.83;7.70;;;;;;;24.83;87.20;101956.22;5006263;28;20034;-64
2023/09/05 10:17:42;;;;;;;37.10;9.75;;;;;;;24.95;87.01;101954.44;5007182;28;20108;-66
2023/09/05 10:20:07;;;;;;;28.70;8.55;;;;;;;25.12;87.82;101947.69;5006261;28;20022;-65
2023/09/05 10:22:36;;;;;;;11.63;5.30;;;;;;;25.22;87.42;101937.88;5006089;28;20041;-64
2023/09/05 10:25:04;;;;;;;27.50;9.98;;;;;;;25.35;89.87;101936.91;5005787;28;20088;-66
2023/09/05 10:27:29;;;;;;;6.75;4.45;;;;;;;25.29;86.57;101940.09;5005190;28;20084;-65
2023/09/05 10:29:56;;;;;;;7.30;3.92;;;;;;;25.44;87.32;101935.31;5007585;28;20030;-64
2023/09/05 10:32:22;;;;;;;6.20;3.72;;;;;;;25.51;86.34;101939.22;5007615;28;20044;-60
2023/09/05 10:34:48;;;;;;;5.18;3.63;;;;;;;25.57;85.02;101935.16;5005410;28;20495;-64
2023/09/05 10:37:26;;;;;;;6.28;4.07;;;;;;;25.74;85.42;101936.53;5007623;28;20388;-65
2023/09/05 10:39:57;;;;;;;9.50;4.25;;;;;;;25.68;84.79;101937.91;5005286;28;20018;-52
2023/09/05 10:42:31;;;;;;;6.65;3.95;;;;;;;25.91;84.27;101935.13;5007590;28;20053;-61
2023/09/05 10:44:59;;;;;;;5.05;4.43;;;;;;;25.78;90.73;101929.03;5007505;28;20033;-67
2023/09/05 10:47:35;;;;;;;6.85;4.78;;;;;;;25.88;89.41;101929.16;5006057;28;20117;-64
2023/09/05 10:50:03;;;;;;;9.95;4.30;;;;;;;26.13;87.07;101925.25;5006686;28;20756;-65
2023/09/05 10:52:32;;;;;;;;;;;;;;;26.21;88.42;101920.06;5006172;28;20453;-65
2023/09/05 10:55:00;;;;;;;5.65;4.22;;;;;;;26.45;85.02;101929.78;5006820;28;19913;-64
2023/09/05 10:57:41;;;;;;;6.22;4.38;;;;;;;26.22;82.67;101931.72;5009968;28;20400;-64
2023/09/05 11:00:15;;;;;;;6.90;4.55;;;;;;;26.24;84.97;101930.59;5009777;28;20436;-63
2023/09/05 11:02:42;;;;;;;4.75;3.78;;;;;;;26.20;83.76;101923.75;5000725;28;20049;-56
2023/09/05 11:05:12;;;;;;;7.30;4.13;;;;;;;26.35;86.24;101926.16;5006369;28;20026;-64
2023/09/05 11:07:42;;;;;;;8.30;4.25;;;;;;;26.53;84.26;101922.88;4992709;28;20440;-63
2023/09/05 11:10:24;;;;;;;4.47;4.03;;;;;;;26.78;82.72;101915.38;4995189;28;20038;-66
2023/09/05 11:12:50;;;;;;;6.30;4.03;;;;;;;26.85;82.46;101922.78;5010335;28;20495;-63